Terminal Aerodrome Forecast
Issued by NWS Goodland, KS

Home | Current Version | Previous Version | Text Only | Print | Product List | Glossary On
Versions: 1 2 3 4 5 6 7 8 9 10 11 12 13 14 15 16 17 18 19 20
000
FTUS43 KGLD 210535
TAFGLD
TAF
KGLD 210535Z 2106/2206 14012G23KT P6SM -RA SCT003 OVC009
     FM211100 10010KT P6SM VCSH OVC003
     FM211800 08008KT P6SM VCSH OVC008
     FM212000 05007KT P6SM SCT008 OVC010=

USA.gov is the U.S. government's official web portal to all federal, state and local government web resources and services.